Terminal Aerodrome Forecast
Issued by NWS Caribou, ME

Home | Current Version | Previous Version | Text Only | Print | Product List | Glossary On
Versions: 1 2 3 4 5 6 7 8 9 10 11 12 13 14 15 16
000
FTUS41 KCAR 271149
TAFCAR
TAF
KCAR 271149Z 2712/2812 36013G22KT 1SM -SN VV010
     FM271700 35015G25KT 4SM -SN OVC030
     FM272000 35015G25KT P6SM BKN030
     FM272200 34007KT P6SM SCT030=

USA.gov is the U.S. government's official web portal to all federal, state and local government web resources and services.